createdAt,value
2023-09-03T00:01:48.555Z,23.30
2023-09-03T00:04:15.065Z,24.40
2023-09-03T00:06:41.538Z,30.23
2023-09-03T00:09:08.081Z,21.93
2023-09-03T00:11:34.512Z,24.57
2023-09-03T00:14:01.098Z,27.17
2023-09-03T00:16:27.769Z,22.63
2023-09-03T00:18:54.759Z,24.00
2023-09-03T00:21:21.280Z,28.77
2023-09-03T00:23:47.765Z,27.80
2023-09-03T00:26:20.361Z,23.23
2023-09-03T00:28:46.839Z,23.77
2023-09-03T00:31:13.351Z,27.50
2023-09-03T00:33:40.115Z,24.07
2023-09-03T00:36:09.863Z,24.33
2023-09-03T00:38:36.821Z,29.37
2023-09-03T00:41:06.383Z,35.23
2023-09-03T00:43:34.613Z,29.13
2023-09-03T00:46:07.037Z,24.43
2023-09-03T00:48:33.747Z,28.73
2023-09-03T00:51:03.596Z,25.60
2023-09-03T00:53:32.127Z,27.67
2023-09-03T00:55:59.083Z,25.73
2023-09-03T00:58:25.942Z,30.83
2023-09-03T01:00:52.586Z,25.20
2023-09-03T01:03:19.612Z,24.03
2023-09-03T01:05:46.156Z,29.80
2023-09-03T01:08:13.458Z,28.90
2023-09-03T01:10:52.674Z,29.20
2023-09-03T01:13:32.297Z,38.10
2023-09-03T01:16:03.151Z,37.60
2023-09-03T01:18:31.374Z,36.10
2023-09-03T01:21:16.052Z,35.20
2023-09-03T01:23:59.361Z,29.93
2023-09-03T01:26:52.091Z,28.00
2023-09-03T01:29:20.491Z,28.17
2023-09-03T01:31:49.024Z,30.60
2023-09-03T01:34:17.192Z,33.67
2023-09-03T01:36:44.343Z,33.57
2023-09-03T01:39:10.839Z,36.97
2023-09-03T01:41:39.370Z,36.50
2023-09-03T01:44:10.149Z,33.10
2023-09-03T01:46:49.448Z,33.50
2023-09-03T01:49:39.401Z,32.63
2023-09-03T01:52:21.021Z,34.13
2023-09-03T01:54:49.908Z,36.47
2023-09-03T01:57:26.381Z,40.23
2023-09-03T01:59:54.768Z,36.40
2023-09-03T02:02:22.198Z,36.73
2023-09-03T02:04:49.293Z,44.50
2023-09-03T02:07:15.845Z,35.53
2023-09-03T02:09:42.255Z,37.70
2023-09-03T02:12:09.597Z,48.10
2023-09-03T02:14:36.582Z,40.00
2023-09-03T02:17:03.378Z,36.90
2023-09-03T02:19:29.991Z,39.90
2023-09-03T02:21:56.532Z,41.47
2023-09-03T02:24:22.981Z,39.10
2023-09-03T02:26:49.470Z,38.30
2023-09-03T02:29:15.901Z,35.20
2023-09-03T02:31:42.460Z,39.20
2023-09-03T02:34:10.194Z,40.07
2023-09-03T02:36:36.773Z,37.20
2023-09-03T02:39:06.127Z,45.50
2023-09-03T02:41:32.814Z,40.40
2023-09-03T02:44:03.859Z,40.17
2023-09-03T02:46:30.622Z,39.83
2023-09-03T02:48:57.269Z,42.50
2023-09-03T02:51:23.835Z,40.23
2023-09-03T02:53:52.515Z,41.50
2023-09-03T02:56:19.402Z,39.33
2023-09-03T02:58:49.610Z,37.63
2023-09-03T03:01:17.591Z,44.43
2023-09-03T03:03:45.001Z,44.63
2023-09-03T03:06:11.924Z,42.37
2023-09-03T03:08:38.630Z,46.50
2023-09-03T03:11:15.910Z,39.97
2023-09-03T03:13:43.939Z,35.40
2023-09-03T03:16:19.697Z,38.27
2023-09-03T03:18:46.726Z,46.07
2023-09-03T03:21:15.746Z,35.57
2023-09-03T03:23:43.523Z,34.47
2023-09-03T03:26:10.061Z,45.07
2023-09-03T03:28:36.832Z,47.17
2023-09-03T03:31:11.857Z,44.70
2023-09-03T03:33:40.496Z,44.47
2023-09-03T03:36:08.616Z,49.97
2023-09-03T03:38:35.446Z,45.93
2023-09-03T03:41:13.002Z,41.63
2023-09-03T03:43:50.628Z,39.57
2023-09-03T03:46:19.546Z,38.00
2023-09-03T03:48:47.322Z,40.33
2023-09-03T03:51:14.297Z,50.17
2023-09-03T03:53:41.594Z,51.13
2023-09-03T03:56:10.153Z,43.50
2023-09-03T03:58:38.381Z,38.17
2023-09-03T04:01:17.437Z,41.47
2023-09-03T04:03:45.585Z,41.13
2023-09-03T04:06:12.328Z,41.23
2023-09-03T04:08:40.254Z,40.90
2023-09-03T04:11:09.160Z,57.60
2023-09-03T04:13:36.685Z,57.63
2023-09-03T04:16:17.171Z,57.47
2023-09-03T04:18:45.702Z,64.63
2023-09-03T04:21:12.947Z,67.43
2023-09-03T04:23:39.748Z,75.63
2023-09-03T04:26:06.423Z,69.30
2023-09-03T04:28:32.988Z,69.77
2023-09-03T04:31:01.813Z,67.23
2023-09-03T04:33:28.702Z,72.73
2023-09-03T04:36:04.966Z,67.60
2023-09-03T04:38:31.821Z,70.37
2023-09-03T04:41:02.446Z,77.90
2023-09-03T04:43:30.388Z,69.10
2023-09-03T04:45:56.981Z,75.60
2023-09-03T04:48:23.871Z,82.03
2023-09-03T04:50:50.611Z,84.70
2023-09-03T04:53:17.082Z,83.23
2023-09-03T04:55:43.665Z,81.33
2023-09-03T04:58:10.325Z,86.17
2023-09-03T05:00:37.171Z,81.33
2023-09-03T05:03:06.121Z,75.67
2023-09-03T05:05:39.789Z,74.27
2023-09-03T05:08:06.432Z,88.00
2023-09-03T05:10:32.956Z,78.60
2023-09-03T05:12:59.458Z,80.07
2023-09-03T05:15:26.036Z,82.83
2023-09-03T05:17:53.650Z,76.30
2023-09-03T05:20:20.181Z,70.23
2023-09-03T05:22:46.655Z,73.53
2023-09-03T05:25:13.153Z,83.13
2023-09-03T05:27:39.642Z,76.90
2023-09-03T05:30:07.330Z,70.17
2023-09-03T05:32:33.897Z,77.67
2023-09-03T05:35:00.470Z,72.97
2023-09-03T05:37:26.932Z,79.00
2023-09-03T05:39:53.369Z,68.90
2023-09-03T05:42:20.049Z,69.77
2023-09-03T05:44:49.426Z,63.90
2023-09-03T05:47:19.458Z,67.57
2023-09-03T05:49:47.325Z,72.30
2023-09-03T05:52:13.998Z,66.90
2023-09-03T05:54:40.485Z,65.57
2023-09-03T05:57:06.976Z,65.80
2023-09-03T05:59:33.462Z,73.13
2023-09-03T06:01:59.993Z,67.07
2023-09-03T06:04:26.500Z,64.80
2023-09-03T06:06:53.006Z,69.87
2023-09-03T06:09:20.062Z,69.60
2023-09-03T06:11:48.172Z,71.20
2023-09-03T06:14:15.304Z,62.53
2023-09-03T06:16:41.871Z,64.03
2023-09-03T06:19:08.377Z,59.20
2023-09-03T06:21:34.880Z,67.57
2023-09-03T06:24:01.331Z,68.40
2023-09-03T06:26:27.830Z,61.63
2023-09-03T06:28:54.323Z,64.60
2023-09-03T06:31:20.987Z,72.80
2023-09-03T06:33:47.997Z,65.27
2023-09-03T06:36:16.154Z,63.77
2023-09-03T06:38:45.699Z,63.07
2023-09-03T06:41:12.263Z,65.80
2023-09-03T06:43:39.757Z,62.43
2023-09-03T06:46:06.640Z,67.53
2023-09-03T06:48:33.137Z,71.33
2023-09-03T06:50:59.677Z,67.10
2023-09-03T06:53:26.358Z,62.20
2023-09-03T06:55:53.556Z,60.53
2023-09-03T06:58:20.229Z,65.40
2023-09-03T07:00:50.271Z,64.33
2023-09-03T07:03:17.761Z,64.40
2023-09-03T07:05:44.322Z,63.37
2023-09-03T07:08:10.881Z,56.50
2023-09-03T07:10:38.111Z,56.90
2023-09-03T07:13:04.926Z,59.83
2023-09-03T07:15:31.394Z,66.07
2023-09-03T07:17:57.947Z,68.13
2023-09-03T07:20:24.517Z,73.53
2023-09-03T07:22:51.073Z,62.67
2023-09-03T07:25:17.631Z,60.00
2023-09-03T07:27:44.207Z,66.93
2023-09-03T07:30:11.352Z,64.20
2023-09-03T07:32:38.770Z,57.57
2023-09-03T07:35:07.519Z,65.50
2023-09-03T07:37:34.840Z,59.53
2023-09-03T07:40:01.357Z,56.50
2023-09-03T07:42:27.905Z,56.83
2023-09-03T07:44:54.701Z,66.73
2023-09-03T07:47:21.679Z,67.83
2023-09-03T07:49:48.519Z,64.03
2023-09-03T07:52:15.402Z,64.10
2023-09-03T07:54:42.011Z,60.60
2023-09-03T07:57:08.821Z,69.10
2023-09-03T07:59:36.102Z,59.50
2023-09-03T08:02:03.443Z,67.37
2023-09-03T08:04:30.423Z,67.73
2023-09-03T08:06:57.466Z,59.73
2023-09-03T08:09:25.561Z,57.53
2023-09-03T08:11:52.963Z,66.00
2023-09-03T08:14:19.659Z,66.30
2023-09-03T08:16:46.437Z,61.40
2023-09-03T08:19:13.667Z,70.10
2023-09-03T08:21:40.399Z,59.23
2023-09-03T08:24:07.304Z,54.83
2023-09-03T08:26:33.800Z,52.17
2023-09-03T08:29:00.404Z,56.23
2023-09-03T08:31:27.237Z,50.50
2023-09-03T08:33:55.506Z,45.07
2023-09-03T08:36:23.425Z,49.93
2023-09-03T08:38:50.315Z,54.27
2023-09-03T08:41:19.477Z,56.33
2023-09-03T08:43:49.630Z,47.10
2023-09-03T08:46:18.492Z,41.70
2023-09-03T08:48:50.690Z,50.87
2023-09-03T08:51:18.429Z,41.77
2023-09-03T08:53:45.787Z,42.03
2023-09-03T08:56:12.570Z,37.50
2023-09-03T08:58:39.516Z,39.03
2023-09-03T09:01:09.408Z,37.73
2023-09-03T09:03:37.841Z,32.47
2023-09-03T09:06:07.935Z,31.07
2023-09-03T09:08:35.959Z,29.57
2023-09-03T09:11:06.120Z,31.03
2023-09-03T09:13:39.877Z,30.00
2023-09-03T09:16:07.136Z,27.00
2023-09-03T09:18:34.070Z,32.07
2023-09-03T09:21:02.160Z,65.10
2023-09-03T09:23:34.222Z,48.90
2023-09-03T09:26:02.395Z,26.67
2023-09-03T09:28:29.072Z,22.63
2023-09-03T09:30:57.731Z,21.27
2023-09-03T09:33:25.135Z,23.90
2023-09-03T09:35:52.250Z,20.73
2023-09-03T09:38:19.423Z,23.10
2023-09-03T09:40:47.991Z,23.77
2023-09-03T09:43:14.783Z,22.37
2023-09-03T09:45:50.782Z,47.00
2023-09-03T09:48:17.912Z,27.93
2023-09-03T09:50:45.929Z,24.33
2023-09-03T09:53:25.707Z,30.77
2023-09-03T09:56:00.632Z,22.73
2023-09-03T09:58:41.087Z,27.13
2023-09-03T10:01:08.901Z,25.50
2023-09-03T10:03:47.203Z,37.03
2023-09-03T10:06:15.193Z,32.27
2023-09-03T10:08:43.257Z,30.17
2023-09-03T10:11:10.225Z,26.30
2023-09-03T10:13:40.392Z,23.87
2023-09-03T10:16:11.503Z,21.47
2023-09-03T10:18:49.541Z,21.87
2023-09-03T10:21:42.666Z,51.83
2023-09-03T10:24:16.353Z,30.27
2023-09-03T10:26:46.168Z,20.73
2023-09-03T10:29:16.371Z,23.37
2023-09-03T10:31:43.789Z,13.43
2023-09-03T10:34:16.126Z,15.53
2023-09-03T10:37:09.134Z,34.70
2023-09-03T10:39:37.071Z,33.50
2023-09-03T10:42:15.846Z,18.20
2023-09-03T10:44:43.938Z,14.50
2023-09-03T10:47:12.710Z,14.57
2023-09-03T10:49:43.999Z,18.37
2023-09-03T10:52:36.326Z,28.03
2023-09-03T10:55:17.260Z,12.00
2023-09-03T10:57:46.025Z,13.30
2023-09-03T11:00:22.033Z,10.70
2023-09-03T11:02:50.799Z,11.20
2023-09-03T11:05:22.903Z,16.40
2023-09-03T11:08:10.427Z,10.83
2023-09-03T11:10:36.893Z,10.83
2023-09-03T11:13:05.583Z,12.43
2023-09-03T11:15:33.222Z,13.00
2023-09-03T11:18:00.363Z,11.80
2023-09-03T11:20:49.391Z,13.33
2023-09-03T11:23:18.593Z,11.33
2023-09-03T11:25:45.924Z,12.50
2023-09-03T11:28:13.367Z,11.47
2023-09-03T11:30:41.438Z,11.17
2023-09-03T11:33:10.289Z,8.83
2023-09-03T11:35:43.985Z,13.50
2023-09-03T11:38:11.224Z,8.90
2023-09-03T11:40:38.476Z,9.87
2023-09-03T11:43:08.865Z,10.00
2023-09-03T11:45:35.522Z,10.03
2023-09-03T11:48:07.293Z,9.53
2023-09-03T11:50:37.362Z,11.47
2023-09-03T11:53:06.279Z,10.37
2023-09-03T11:55:47.370Z,9.33
2023-09-03T11:58:17.377Z,10.67
2023-09-03T12:00:44.526Z,8.90
2023-09-03T12:03:11.931Z,10.60
2023-09-03T12:05:38.828Z,12.70
2023-09-03T12:08:06.099Z,10.00
2023-09-03T12:10:33.002Z,12.40
2023-09-03T12:13:00.826Z,10.27
2023-09-03T12:15:27.819Z,9.80
2023-09-03T12:17:54.524Z,8.00
2023-09-03T12:20:34.291Z,10.40
2023-09-03T12:23:11.493Z,15.73
2023-09-03T12:25:39.119Z,12.77
2023-09-03T12:28:06.171Z,9.63
2023-09-03T12:30:58.610Z,9.40
2023-09-03T12:33:26.635Z,9.37
2023-09-03T12:36:10.068Z,9.40
2023-09-03T12:39:04.531Z,9.53
2023-09-03T12:41:35.624Z,11.23
2023-09-03T12:44:07.755Z,10.30
2023-09-03T12:46:36.007Z,9.67
2023-09-03T12:49:06.575Z,12.10
2023-09-03T12:51:38.506Z,8.93
2023-09-03T12:54:06.069Z,9.13
2023-09-03T12:56:33.761Z,10.43
2023-09-03T12:59:05.908Z,9.40
2023-09-03T13:01:39.219Z,9.27
2023-09-03T13:04:08.444Z,10.10
2023-09-03T13:06:35.697Z,12.00
2023-09-03T13:09:02.192Z,9.90
2023-09-03T13:11:28.725Z,9.00
2023-09-03T13:13:55.232Z,8.77
2023-09-03T13:16:23.656Z,8.40
2023-09-03T13:18:50.949Z,9.30
2023-09-03T13:21:17.994Z,9.43
2023-09-03T13:23:44.509Z,7.90
2023-09-03T13:26:11.242Z,9.20
2023-09-03T13:28:41.358Z,7.80
2023-09-03T13:31:08.803Z,9.70
2023-09-03T13:33:37.242Z,8.57
2023-09-03T13:36:06.033Z,10.13
2023-09-03T13:38:33.670Z,9.87
2023-09-03T13:41:00.609Z,11.60
2023-09-03T13:43:27.502Z,9.90
2023-09-03T13:45:59.511Z,15.80
2023-09-03T13:48:26.672Z,9.67
2023-09-03T13:50:53.800Z,8.33
2023-09-03T13:53:20.765Z,11.47
2023-09-03T13:55:47.948Z,10.30
2023-09-03T13:58:14.647Z,8.60
2023-09-03T14:00:42.038Z,9.53
2023-09-03T14:03:09.626Z,9.50
2023-09-03T14:05:36.315Z,10.07
2023-09-03T14:08:03.405Z,10.13
2023-09-03T14:10:29.868Z,8.47
2023-09-03T14:12:56.398Z,9.67
2023-09-03T14:15:23.230Z,12.37
2023-09-03T14:17:49.731Z,8.10
2023-09-03T14:20:16.399Z,9.00
2023-09-03T14:22:44.474Z,10.50
2023-09-03T14:25:11.169Z,9.73
2023-09-03T14:27:37.801Z,10.10
2023-09-03T14:30:05.027Z,8.63
2023-09-03T14:32:31.600Z,8.70
2023-09-03T14:34:58.171Z,8.60
2023-09-03T14:37:24.670Z,10.00
2023-09-03T14:39:51.200Z,11.87
2023-09-03T14:42:17.700Z,8.70
2023-09-03T14:44:44.213Z,8.80
2023-09-03T14:47:10.685Z,8.33
2023-09-03T14:49:45.107Z,8.80
2023-09-03T14:52:13.968Z,9.53
2023-09-03T14:54:40.709Z,9.80
2023-09-03T14:57:09.273Z,10.03
2023-09-03T14:59:36.114Z,10.10
2023-09-03T15:02:02.765Z,12.37
2023-09-03T15:04:31.616Z,11.53
2023-09-03T15:06:58.684Z,9.13
2023-09-03T15:09:25.412Z,12.10
2023-09-03T15:11:51.997Z,12.20
2023-09-03T15:14:18.488Z,10.63
2023-09-03T15:16:45.526Z,10.30
2023-09-03T15:19:12.223Z,11.20
2023-09-03T15:21:38.853Z,10.13
2023-09-03T15:24:05.568Z,14.13
2023-09-03T15:26:32.126Z,46.03
2023-09-03T15:28:58.677Z,28.63
2023-09-03T15:31:25.618Z,14.23
2023-09-03T15:33:52.244Z,11.37
2023-09-03T15:36:18.859Z,9.87
2023-09-03T15:38:45.574Z,9.70
2023-09-03T15:41:12.150Z,10.73
2023-09-03T15:43:38.642Z,17.13
2023-09-03T15:46:05.386Z,22.90
2023-09-03T15:48:33.514Z,26.07
2023-09-03T15:51:00.232Z,13.13
2023-09-03T15:53:27.153Z,11.63
2023-09-03T15:55:57.536Z,10.90
2023-09-03T15:58:24.613Z,10.10
2023-09-03T16:00:51.540Z,12.80
2023-09-03T16:03:20.636Z,11.00
2023-09-03T16:05:47.630Z,9.77
2023-09-03T16:08:14.207Z,12.57
2023-09-03T16:10:40.720Z,13.40
2023-09-03T16:13:08.608Z,11.90
2023-09-03T16:15:40.497Z,9.93
2023-09-03T16:18:07.404Z,9.40
2023-09-03T16:20:37.601Z,8.27
2023-09-03T16:23:04.616Z,8.77
2023-09-03T16:25:31.471Z,11.00
2023-09-03T16:27:58.405Z,11.73
2023-09-03T16:30:25.193Z,8.43
2023-09-03T16:32:51.848Z,12.57
2023-09-03T16:35:20.472Z,14.00
2023-09-03T16:37:47.209Z,12.67
2023-09-03T16:40:14.951Z,11.60
2023-09-03T16:42:42.005Z,10.93
2023-09-03T16:45:09.069Z,9.83
2023-09-03T16:47:35.630Z,10.33
2023-09-03T16:50:05.752Z,9.83
2023-09-03T16:52:34.081Z,9.60
2023-09-03T16:55:00.997Z,10.00
2023-09-03T16:57:28.708Z,9.70
2023-09-03T16:59:55.265Z,11.20
2023-09-03T17:02:21.930Z,24.23
2023-09-03T17:04:48.600Z,15.87
2023-09-03T17:07:15.123Z,13.73
2023-09-03T17:09:41.629Z,10.93
2023-09-03T17:12:08.170Z,12.37
2023-09-03T17:14:34.817Z,9.50
2023-09-03T17:17:06.347Z,11.37
2023-09-03T17:19:33.363Z,12.20
2023-09-03T17:21:59.930Z,13.13
2023-09-03T17:24:26.592Z,11.10
2023-09-03T17:26:53.497Z,11.60
2023-09-03T17:29:20.097Z,13.23
2023-09-03T17:31:46.620Z,16.77
2023-09-03T17:34:13.153Z,13.53
2023-09-03T17:36:39.613Z,11.87
2023-09-03T17:39:06.155Z,11.63
2023-09-03T17:41:34.003Z,15.70
2023-09-03T17:44:01.120Z,20.90
2023-09-03T17:46:27.792Z,11.50
2023-09-03T17:48:54.517Z,13.10
2023-09-03T17:51:21.251Z,12.27
2023-09-03T17:53:47.785Z,13.17
2023-09-03T17:56:14.313Z,11.00
2023-09-03T17:58:40.790Z,11.53
2023-09-03T18:01:07.370Z,10.73
2023-09-03T18:03:34.051Z,12.13
2023-09-03T18:06:07.645Z,13.90
2023-09-03T18:08:34.332Z,11.47
2023-09-03T18:11:00.853Z,13.33
2023-09-03T18:13:27.350Z,15.47
2023-09-03T18:16:00.314Z,11.90
2023-09-03T18:18:26.874Z,30.07
2023-09-03T18:20:59.028Z,18.13
2023-09-03T18:23:25.555Z,14.20
2023-09-03T18:25:52.106Z,12.83
2023-09-03T18:28:18.662Z,15.37
2023-09-03T18:30:45.154Z,14.17
2023-09-03T18:33:11.650Z,18.53
2023-09-03T18:35:38.245Z,29.03
2023-09-03T18:38:04.960Z,25.40
2023-09-03T18:40:32.258Z,23.87
2023-09-03T18:42:58.864Z,24.97
2023-09-03T18:45:26.223Z,17.77
2023-09-03T18:47:53.046Z,14.77
2023-09-03T18:50:19.687Z,14.57
2023-09-03T18:52:46.199Z,14.10
2023-09-03T18:55:12.752Z,13.67
2023-09-03T18:57:39.318Z,12.73
2023-09-03T19:00:08.671Z,13.27
2023-09-03T19:02:35.222Z,15.30
2023-09-03T19:05:01.838Z,14.60
2023-09-03T19:07:28.334Z,11.77
2023-09-03T19:09:54.875Z,13.80
2023-09-03T19:12:21.348Z,21.97
2023-09-03T19:14:48.395Z,13.97
2023-09-03T19:17:14.873Z,16.70
2023-09-03T19:19:41.483Z,15.30
2023-09-03T19:22:08.074Z,21.23
2023-09-03T19:24:35.280Z,23.40
2023-09-03T19:27:01.719Z,15.73
2023-09-03T19:29:28.232Z,13.73
2023-09-03T19:31:54.865Z,12.73
2023-09-03T19:34:25.471Z,14.43
2023-09-03T19:36:53.665Z,11.40
2023-09-03T19:39:20.304Z,13.93
2023-09-03T19:41:51.453Z,13.80
2023-09-03T19:44:18.757Z,16.70
2023-09-03T19:46:45.360Z,23.53
2023-09-03T19:49:11.906Z,12.37
2023-09-03T19:51:38.469Z,11.27
2023-09-03T19:54:05.204Z,14.50
2023-09-03T19:56:32.434Z,14.73
2023-09-03T19:58:59.366Z,15.83
2023-09-03T20:01:26.807Z,16.37
2023-09-03T20:03:53.922Z,16.73
2023-09-03T20:06:21.218Z,17.20
2023-09-03T20:08:47.761Z,16.00
2023-09-03T20:11:16.951Z,14.50
2023-09-03T20:13:44.517Z,13.60
2023-09-03T20:16:11.461Z,15.60
2023-09-03T20:18:38.186Z,11.30
2023-09-03T20:21:05.133Z,11.40
2023-09-03T20:23:32.182Z,16.63
2023-09-03T20:26:06.835Z,14.77
2023-09-03T20:28:46.021Z,16.47
2023-09-03T20:31:14.861Z,11.43
2023-09-03T20:33:41.603Z,13.57
2023-09-03T20:36:15.129Z,11.27
2023-09-03T20:38:41.814Z,10.43
2023-09-03T20:41:08.827Z,11.50
2023-09-03T20:43:35.646Z,10.73
2023-09-03T20:46:02.794Z,11.23
2023-09-03T20:48:29.719Z,11.03
2023-09-03T20:51:01.377Z,10.40
2023-09-03T20:53:28.121Z,12.10
2023-09-03T20:55:55.813Z,10.13
2023-09-03T20:58:23.902Z,17.97
2023-09-03T21:00:50.876Z,25.27
2023-09-03T21:03:17.901Z,13.37
2023-09-03T21:05:54.227Z,12.90
2023-09-03T21:08:22.271Z,11.00
2023-09-03T21:11:00.071Z,9.67
2023-09-03T21:13:27.447Z,10.27
2023-09-03T21:15:56.076Z,11.50
2023-09-03T21:18:27.896Z,13.23
2023-09-03T21:21:01.583Z,10.07
2023-09-03T21:23:37.405Z,10.53
2023-09-03T21:26:05.580Z,12.47
2023-09-03T21:28:45.607Z,11.43
2023-09-03T21:31:18.177Z,12.33
2023-09-03T21:33:46.528Z,11.53
2023-09-03T21:36:20.940Z,12.53
2023-09-03T21:38:48.311Z,9.90
2023-09-03T21:41:14.837Z,26.67
2023-09-03T21:43:49.934Z,10.50
2023-09-03T21:46:16.480Z,12.37
2023-09-03T21:48:43.042Z,11.43
2023-09-03T21:51:18.694Z,15.33
2023-09-03T21:53:46.553Z,15.23
2023-09-03T21:56:13.126Z,12.70
2023-09-03T21:58:39.666Z,11.90
2023-09-03T22:01:06.280Z,27.80
2023-09-03T22:03:32.922Z,15.87
2023-09-03T22:06:02.921Z,13.33
2023-09-03T22:08:29.437Z,12.93
2023-09-03T22:10:55.954Z,11.27
2023-09-03T22:13:22.446Z,15.13
2023-09-03T22:15:48.996Z,11.00
2023-09-03T22:18:15.578Z,16.00
2023-09-03T22:20:42.097Z,12.80
2023-09-03T22:23:08.580Z,10.30
2023-09-03T22:25:35.062Z,12.10
2023-09-03T22:28:02.808Z,14.60
2023-09-03T22:30:29.438Z,14.60
2023-09-03T22:32:57.077Z,10.93
2023-09-03T22:35:23.652Z,12.97
2023-09-03T22:37:50.173Z,10.73
2023-09-03T22:40:16.742Z,10.93
2023-09-03T22:42:43.327Z,12.10
2023-09-03T22:45:10.110Z,8.70
2023-09-03T22:47:36.720Z,13.40
2023-09-03T22:50:03.574Z,13.50
2023-09-03T22:52:30.165Z,10.83
2023-09-03T22:54:56.739Z,11.30
2023-09-03T22:57:24.369Z,10.00
2023-09-03T22:59:51.463Z,9.97
2023-09-03T23:02:18.333Z,10.77
2023-09-03T23:04:44.921Z,10.87
2023-09-03T23:07:12.467Z,12.90
2023-09-03T23:09:39.060Z,14.20
2023-09-03T23:12:05.916Z,13.53
2023-09-03T23:14:32.514Z,10.30
2023-09-03T23:16:59.095Z,9.23
2023-09-03T23:19:25.621Z,9.53
2023-09-03T23:21:52.251Z,10.30
2023-09-03T23:24:19.083Z,10.20
2023-09-03T23:26:45.930Z,10.67
2023-09-03T23:29:12.553Z,11.10
2023-09-03T23:31:39.113Z,12.50
2023-09-03T23:34:05.688Z,15.13
2023-09-03T23:36:32.508Z,10.00
2023-09-03T23:38:59.007Z,16.23
2023-09-03T23:41:26.022Z,11.63
2023-09-03T23:43:52.569Z,12.00
2023-09-03T23:46:19.065Z,10.40
2023-09-03T23:48:45.612Z,10.10
2023-09-03T23:51:12.091Z,12.97
2023-09-03T23:53:38.774Z,9.43
2023-09-03T23:56:05.268Z,12.47
2023-09-03T23:58:31.755Z,10.90
